createdAt,value
2019-06-15T00:00:21.930Z,0.00
2019-06-15T00:01:21.724Z,0.00
2019-06-15T00:02:21.847Z,0.00
2019-06-15T00:03:21.586Z,0.00
2019-06-15T00:04:21.655Z,0.00
2019-06-15T00:05:21.436Z,0.00
2019-06-15T00:06:21.566Z,0.00
2019-06-15T00:07:21.291Z,0.00
2019-06-15T00:08:21.372Z,0.00
2019-06-15T00:09:21.144Z,0.00
2019-06-15T00:10:21.300Z,0.00
2019-06-15T00:11:20.999Z,0.00
2019-06-15T00:12:21.094Z,0.00
2019-06-15T00:13:20.863Z,0.00
2019-06-15T00:14:21.004Z,0.00
2019-06-15T00:15:20.712Z,0.00
2019-06-15T00:16:20.811Z,0.00
2019-06-15T00:17:20.568Z,0.00
2019-06-15T00:18:20.648Z,0.00
2019-06-15T00:19:20.427Z,0.00
2019-06-15T00:20:20.538Z,0.00
2019-06-15T00:21:20.277Z,0.00
2019-06-15T00:22:20.357Z,0.00
2019-06-15T00:23:20.144Z,0.00
2019-06-15T00:24:32.268Z,0.00
2019-06-15T00:25:19.987Z,0.00
2019-06-15T00:26:20.065Z,0.00
2019-06-15T00:27:19.841Z,0.00
2019-06-15T00:28:19.978Z,0.00
2019-06-15T00:29:19.708Z,0.00
2019-06-15T00:30:19.783Z,0.00
2019-06-15T00:31:19.553Z,0.00
2019-06-15T00:32:19.707Z,0.00
2019-06-15T00:33:19.411Z,0.00
2019-06-15T00:34:19.501Z,0.00
2019-06-15T00:35:19.264Z,0.00
2019-06-15T00:36:19.418Z,0.00
2019-06-15T00:37:19.113Z,0.00
2019-06-15T00:38:19.233Z,0.00
2019-06-15T00:39:18.986Z,0.00
2019-06-15T00:40:19.036Z,0.00
2019-06-15T00:41:18.827Z,0.00
2019-06-15T00:42:18.947Z,0.00
2019-06-15T00:43:18.683Z,0.00
2019-06-15T00:44:18.751Z,0.00
2019-06-15T00:45:18.540Z,0.00
2019-06-15T00:46:18.667Z,0.00
2019-06-15T00:47:18.394Z,0.00
2019-06-15T00:48:18.473Z,0.00
2019-06-15T00:49:18.240Z,0.00
2019-06-15T00:50:18.387Z,0.00
2019-06-15T00:51:18.108Z,0.00
2019-06-15T00:52:18.193Z,0.00
2019-06-15T00:53:17.968Z,0.00
2019-06-15T00:54:18.124Z,0.00
2019-06-15T00:55:17.808Z,0.00
2019-06-15T00:56:17.816Z,0.00
2019-06-15T00:57:17.666Z,0.00
2019-06-15T00:58:17.730Z,0.00
2019-06-15T00:59:17.527Z,0.00
2019-06-15T01:00:17.641Z,0.00
2019-06-15T01:01:17.372Z,0.00
2019-06-15T01:02:17.460Z,0.00
2019-06-15T01:03:17.228Z,0.00
2019-06-15T01:04:17.357Z,0.00
2019-06-15T01:05:17.081Z,0.00
2019-06-15T01:06:17.170Z,0.00
2019-06-15T01:07:16.941Z,0.00
2019-06-15T01:08:16.984Z,0.00
2019-06-15T01:09:16.799Z,0.00
2019-06-15T01:10:16.789Z,0.00
2019-06-15T01:11:16.654Z,0.00
2019-06-15T01:12:16.698Z,0.00
2019-06-15T01:13:16.504Z,0.00
2019-06-15T01:14:16.510Z,0.00
2019-06-15T01:15:16.360Z,0.00
2019-06-15T01:16:16.416Z,0.00
2019-06-15T01:17:16.216Z,0.00
2019-06-15T01:18:16.236Z,0.00
2019-06-15T01:19:16.070Z,0.00
2019-06-15T01:20:16.032Z,0.00
2019-06-15T01:21:15.921Z,0.00
2019-06-15T01:22:15.944Z,0.00
2019-06-15T01:23:15.773Z,0.00
2019-06-15T01:24:15.753Z,0.00
2019-06-15T01:25:15.637Z,0.00
2019-06-15T01:26:15.667Z,0.00
2019-06-15T01:27:15.488Z,0.00
2019-06-15T01:28:15.479Z,0.00
2019-06-15T01:29:15.345Z,0.00
2019-06-15T01:30:15.387Z,0.00
2019-06-15T01:31:15.191Z,0.00
2019-06-15T01:32:15.193Z,0.00
2019-06-15T01:33:15.067Z,0.00
2019-06-15T01:34:15.111Z,0.00
2019-06-15T01:35:14.897Z,0.00
2019-06-15T01:36:14.922Z,0.00
2019-06-15T01:37:14.759Z,0.00
2019-06-15T01:38:14.733Z,0.00
2019-06-15T01:39:14.616Z,0.00
2019-06-15T01:40:14.638Z,0.00
2019-06-15T01:41:14.476Z,0.00
2019-06-15T01:42:14.448Z,0.00
2019-06-15T01:43:14.330Z,0.00
2019-06-15T01:44:14.359Z,0.00
2019-06-15T01:45:14.179Z,0.00
2019-06-15T01:46:14.177Z,0.00
2019-06-15T01:47:14.031Z,0.00
2019-06-15T01:48:14.082Z,0.00
2019-06-15T01:49:13.883Z,0.00
2019-06-15T01:50:13.887Z,0.00
2019-06-15T01:51:13.733Z,0.00
2019-06-15T01:52:13.842Z,0.00
2019-06-15T01:53:13.605Z,0.00
2019-06-15T01:54:13.604Z,0.00
2019-06-15T01:55:20.808Z,0.00
2019-06-15T01:56:13.416Z,0.00
2019-06-15T01:57:13.292Z,0.00
2019-06-15T01:58:13.325Z,0.00
2019-06-15T01:59:13.152Z,0.00
2019-06-15T02:00:13.137Z,0.00
2019-06-15T02:01:13.001Z,0.00
2019-06-15T02:02:13.050Z,0.00
2019-06-15T02:03:12.864Z,0.00
2019-06-15T02:04:12.936Z,0.00
2019-06-15T02:05:12.720Z,0.00
2019-06-15T02:06:13.876Z,0.00
2019-06-15T02:07:12.577Z,0.00
2019-06-15T02:08:12.580Z,0.00
2019-06-15T02:09:12.418Z,0.00
2019-06-15T02:10:12.494Z,0.00
2019-06-15T02:11:12.277Z,0.00
2019-06-15T02:12:12.295Z,0.00
2019-06-15T02:13:12.337Z,0.00
2019-06-15T02:14:12.116Z,0.00
2019-06-15T02:15:11.992Z,0.00
2019-06-15T02:16:12.030Z,0.00
2019-06-15T02:17:11.830Z,0.00
2019-06-15T02:18:11.832Z,0.00
2019-06-15T02:19:11.687Z,0.00
2019-06-15T02:20:11.755Z,0.00
2019-06-15T02:21:11.551Z,0.00
2019-06-15T02:22:11.550Z,0.00
2019-06-15T02:23:11.408Z,0.00
2019-06-15T02:24:11.460Z,0.00
2019-06-15T02:25:11.250Z,0.00
2019-06-15T02:26:11.273Z,0.00
2019-06-15T02:27:11.102Z,0.00
2019-06-15T02:28:11.181Z,0.00
2019-06-15T02:29:10.959Z,0.00
2019-06-15T02:30:10.991Z,0.00
2019-06-15T02:31:10.811Z,0.00
2019-06-15T02:32:10.802Z,0.00
2019-06-15T02:33:10.680Z,0.00
2019-06-15T02:34:10.711Z,0.00
2019-06-15T02:35:10.518Z,0.00
2019-06-15T02:36:10.519Z,0.00
2019-06-15T02:37:10.379Z,0.00
2019-06-15T02:38:10.433Z,0.00
2019-06-15T02:39:10.233Z,0.00
2019-06-15T02:40:10.249Z,0.00
2019-06-15T02:41:10.077Z,0.00
2019-06-15T02:42:10.166Z,0.00
2019-06-15T02:43:10.020Z,0.00
2019-06-15T02:44:09.961Z,0.00
2019-06-15T02:45:09.806Z,0.00
2019-06-15T02:46:09.768Z,0.00
2019-06-15T02:47:09.645Z,0.00
2019-06-15T02:48:09.683Z,0.00
2019-06-15T02:49:09.489Z,0.00
2019-06-15T02:50:09.487Z,0.00
2019-06-15T02:51:09.354Z,4.00
2019-06-15T02:52:09.407Z,0.00
2019-06-15T02:53:09.199Z,0.00
2019-06-15T02:54:09.209Z,0.00
2019-06-15T02:55:09.055Z,0.00
2019-06-15T02:56:09.090Z,4.00
2019-06-15T02:57:08.905Z,4.00
2019-06-15T02:58:08.930Z,0.00
2019-06-15T02:59:08.764Z,0.00
2019-06-15T03:00:08.843Z,4.00
2019-06-15T03:01:08.622Z,4.00
2019-06-15T03:02:08.650Z,4.00
2019-06-15T03:03:08.465Z,4.00
2019-06-15T03:04:08.462Z,4.00
2019-06-15T03:05:08.322Z,4.00
2019-06-15T03:06:08.372Z,8.00
2019-06-15T03:07:08.173Z,4.00
2019-06-15T03:08:08.182Z,4.00
2019-06-15T03:09:08.026Z,4.00
2019-06-15T03:10:08.096Z,8.00
2019-06-15T03:11:07.880Z,4.00
2019-06-15T03:12:07.911Z,8.00
2019-06-15T03:13:07.729Z,4.00
2019-06-15T03:14:07.816Z,8.00
2019-06-15T03:15:07.599Z,8.00
2019-06-15T03:16:07.625Z,8.00
2019-06-15T03:17:07.438Z,8.00
2019-06-15T03:18:07.433Z,8.00
2019-06-15T03:19:07.292Z,8.00
2019-06-15T03:20:07.354Z,8.00
2019-06-15T03:21:07.143Z,8.00
2019-06-15T03:22:07.149Z,4.00
2019-06-15T03:23:06.996Z,8.00
2019-06-15T03:24:07.057Z,8.00
2019-06-15T03:25:06.846Z,8.00
2019-06-15T03:26:06.873Z,8.00
2019-06-15T03:27:06.707Z,8.00
2019-06-15T03:28:07.709Z,8.00
2019-06-15T03:29:06.561Z,8.00
2019-06-15T03:30:06.597Z,8.00
2019-06-15T03:31:06.417Z,12.00
2019-06-15T03:32:06.404Z,12.00
2019-06-15T03:33:06.268Z,12.00
2019-06-15T03:34:06.322Z,12.00
2019-06-15T03:35:06.112Z,16.00
2019-06-15T03:36:06.119Z,16.00
2019-06-15T03:37:06.030Z,16.00
2019-06-15T03:38:06.033Z,20.00
2019-06-15T03:39:06.118Z,20.00
2019-06-15T03:40:05.901Z,20.00
2019-06-15T03:41:06.251Z,24.00
2019-06-15T03:42:05.793Z,28.00
2019-06-15T03:43:05.560Z,28.00
2019-06-15T03:44:05.565Z,32.00
2019-06-15T03:45:05.380Z,36.00
2019-06-15T03:46:05.402Z,32.00
2019-06-15T03:47:05.225Z,36.00
2019-06-15T03:48:05.284Z,36.00
2019-06-15T03:49:05.086Z,40.00
2019-06-15T03:50:05.090Z,40.00
2019-06-15T03:51:04.936Z,44.00
2019-06-15T03:52:05.923Z,44.00
2019-06-15T03:53:04.783Z,48.00
2019-06-15T03:54:04.815Z,48.00
2019-06-15T03:55:04.721Z,48.00
2019-06-15T03:56:17.593Z,48.00
2019-06-15T03:57:04.497Z,52.00
2019-06-15T03:58:04.544Z,52.00
2019-06-15T03:59:04.353Z,48.00
2019-06-15T04:00:04.341Z,52.00
2019-06-15T04:01:04.192Z,52.00
2019-06-15T04:02:04.259Z,56.00
2019-06-15T04:03:04.050Z,60.00
2019-06-15T04:04:04.073Z,64.00
2019-06-15T04:05:03.902Z,68.00
2019-06-15T04:06:03.977Z,76.00
2019-06-15T04:07:03.755Z,80.00
2019-06-15T04:08:03.789Z,92.00
2019-06-15T04:09:03.607Z,96.00
2019-06-15T04:10:03.696Z,112.00
2019-06-15T04:11:03.458Z,116.00
2019-06-15T04:12:03.511Z,128.00
2019-06-15T04:13:03.315Z,136.00
2019-06-15T04:14:03.327Z,140.00
2019-06-15T04:15:03.190Z,148.00
2019-06-15T04:16:03.229Z,152.00
2019-06-15T04:17:03.016Z,156.00
2019-06-15T04:18:03.030Z,156.00
2019-06-15T04:19:03.098Z,164.00
2019-06-15T04:20:02.945Z,168.00
2019-06-15T04:21:02.720Z,168.00
2019-06-15T04:22:02.770Z,172.00
2019-06-15T04:23:02.574Z,180.00
2019-06-15T04:24:02.770Z,188.00
2019-06-15T04:25:02.595Z,192.00
2019-06-15T04:26:02.482Z,196.00
2019-06-15T04:27:02.287Z,196.00
2019-06-15T04:28:02.286Z,204.00
2019-06-15T04:29:02.127Z,208.00
2019-06-15T04:30:02.201Z,208.00
2019-06-15T04:31:02.003Z,208.00
2019-06-15T04:32:02.051Z,216.00
2019-06-15T04:33:01.832Z,216.00
2019-06-15T04:34:01.917Z,220.00
2019-06-15T04:35:01.695Z,224.00
2019-06-15T04:36:01.733Z,228.00
2019-06-15T04:37:01.662Z,228.00
2019-06-15T04:38:01.641Z,236.00
2019-06-15T04:39:01.395Z,248.00
2019-06-15T04:40:01.445Z,252.00
2019-06-15T04:41:01.769Z,248.00
2019-06-15T04:42:01.260Z,260.00
2019-06-15T04:43:01.182Z,268.00
2019-06-15T04:44:01.170Z,268.00
2019-06-15T04:45:00.955Z,268.00
2019-06-15T04:46:00.980Z,264.00
2019-06-15T04:47:00.809Z,260.00
2019-06-15T04:48:00.891Z,256.00
2019-06-15T04:49:00.660Z,248.00
2019-06-15T04:50:00.706Z,244.00
2019-06-15T04:51:00.510Z,236.00
2019-06-15T04:52:00.637Z,232.00
2019-06-15T04:53:00.362Z,224.00
2019-06-15T04:54:00.413Z,224.00
2019-06-15T04:55:00.235Z,224.00
2019-06-15T04:56:00.271Z,228.00
2019-06-15T04:57:00.133Z,236.00
2019-06-15T04:58:00.148Z,248.00
2019-06-15T04:58:59.926Z,260.00
2019-06-15T04:59:59.949Z,268.00
2019-06-15T05:00:59.782Z,272.00
2019-06-15T05:01:59.858Z,264.00
2019-06-15T05:02:59.629Z,256.00
2019-06-15T05:03:59.599Z,248.00
2019-06-15T05:04:59.491Z,236.00
2019-06-15T05:05:59.583Z,224.00
2019-06-15T05:06:59.343Z,216.00
2019-06-15T05:07:59.388Z,208.00
2019-06-15T05:08:59.193Z,204.00
2019-06-15T05:09:59.305Z,200.00
2019-06-15T05:11:00.058Z,212.00
2019-06-15T05:11:59.102Z,216.00
2019-06-15T05:12:58.895Z,236.00
2019-06-15T05:13:58.916Z,236.00
2019-06-15T05:14:58.757Z,236.00
2019-06-15T05:15:58.837Z,244.00
2019-06-15T05:16:58.602Z,260.00
2019-06-15T05:17:58.639Z,268.00
2019-06-15T05:18:58.456Z,292.00
2019-06-15T05:19:58.690Z,288.00
2019-06-15T05:20:58.311Z,268.00
2019-06-15T05:21:58.365Z,276.00
2019-06-15T05:22:58.168Z,304.00
2019-06-15T05:23:58.269Z,296.00
2019-06-15T05:24:58.016Z,356.00
2019-06-15T05:25:58.072Z,336.00
2019-06-15T05:27:06.272Z,368.00
2019-06-15T05:27:57.801Z,372.00
2019-06-15T05:28:57.797Z,380.00
2019-06-15T05:29:57.654Z,392.00
2019-06-15T05:30:57.711Z,392.00
2019-06-15T05:31:57.509Z,404.00
2019-06-15T05:32:57.617Z,412.00
2019-06-15T05:33:57.371Z,420.00
2019-06-15T05:34:57.673Z,436.00
2019-06-15T05:35:57.222Z,448.00
2019-06-15T05:36:57.232Z,468.00
2019-06-15T05:37:57.074Z,484.00
2019-06-15T05:38:57.151Z,512.00
2019-06-15T05:39:56.925Z,520.00
2019-06-15T05:40:56.953Z,540.00
2019-06-15T05:41:56.776Z,564.00
2019-06-15T05:42:56.859Z,576.00
2019-06-15T05:43:56.638Z,592.00
2019-06-15T05:44:56.675Z,620.00
2019-06-15T05:45:56.493Z,624.00
2019-06-15T05:46:56.587Z,640.00
2019-06-15T05:47:56.352Z,652.00
2019-06-15T05:48:56.390Z,660.00
2019-06-15T05:49:56.303Z,676.00
2019-06-15T05:50:58.604Z,692.00
2019-06-15T05:51:56.055Z,696.00
2019-06-15T05:52:56.115Z,720.00
2019-06-15T05:53:55.909Z,712.00
2019-06-15T05:54:56.032Z,728.00
2019-06-15T05:55:55.765Z,736.00
2019-06-15T05:56:55.840Z,740.00
2019-06-15T05:57:55.631Z,744.00
2019-06-15T05:58:55.644Z,752.00
2019-06-15T05:59:55.473Z,748.00
2019-06-15T06:00:55.565Z,752.00
2019-06-15T06:01:55.333Z,748.00
2019-06-15T06:02:55.319Z,744.00
2019-06-15T06:03:55.186Z,744.00
2019-06-15T06:04:55.282Z,740.00
2019-06-15T06:05:55.044Z,744.00
2019-06-15T06:06:55.079Z,748.00
2019-06-15T06:07:54.893Z,744.00
2019-06-15T06:08:54.997Z,744.00
2019-06-15T06:09:54.805Z,744.00
2019-06-15T06:10:54.807Z,748.00
2019-06-15T06:11:54.625Z,748.00
2019-06-15T06:12:54.715Z,752.00
2019-06-15T06:13:54.477Z,756.00
2019-06-15T06:14:54.522Z,756.00
2019-06-15T06:15:54.349Z,756.00
2019-06-15T06:16:54.435Z,760.00
2019-06-15T06:17:54.181Z,768.00
2019-06-15T06:18:54.242Z,772.00
2019-06-15T06:19:54.067Z,776.00
2019-06-15T06:20:54.297Z,776.00
2019-06-15T06:21:53.902Z,780.00
2019-06-15T06:22:53.980Z,784.00
2019-06-15T06:23:53.748Z,784.00
2019-06-15T06:24:53.672Z,796.00
2019-06-15T06:25:53.791Z,800.00
2019-06-15T06:26:53.531Z,808.00
2019-06-15T06:27:53.623Z,808.00
2019-06-15T06:28:57.163Z,816.00
2019-06-15T06:29:53.499Z,820.00
2019-06-15T06:30:53.246Z,832.00
2019-06-15T06:31:53.316Z,840.00
2019-06-15T06:32:53.111Z,872.00
2019-06-15T06:33:53.224Z,888.00
2019-06-15T06:34:53.051Z,904.00
2019-06-15T06:35:53.034Z,924.00
2019-06-15T06:36:52.823Z,928.00
2019-06-15T06:37:52.946Z,932.00
2019-06-15T06:38:52.678Z,932.00
2019-06-15T06:39:52.752Z,944.00
2019-06-15T06:40:52.541Z,948.00
2019-06-15T06:41:52.561Z,956.00
2019-06-15T06:42:52.396Z,964.00
2019-06-15T06:43:52.477Z,972.00
2019-06-15T06:44:52.252Z,980.00
2019-06-15T06:45:52.284Z,988.00
2019-06-15T06:46:52.109Z,1016.00
2019-06-15T06:47:52.208Z,1040.00
2019-06-15T06:48:51.966Z,1064.00
2019-06-15T06:49:52.012Z,1096.00
2019-06-15T06:50:51.822Z,1112.00
2019-06-15T06:51:51.915Z,1140.00
2019-06-15T06:52:51.679Z,1192.00
2019-06-15T06:53:51.725Z,1216.00
2019-06-15T06:54:51.551Z,740.00
2019-06-15T06:55:51.628Z,896.00
2019-06-15T06:56:51.400Z,712.00
2019-06-15T06:57:56.078Z,768.00
2019-06-15T06:58:51.252Z,1096.00
2019-06-15T06:59:51.358Z,896.00
2019-06-15T07:00:51.110Z,900.00
2019-06-15T07:01:51.045Z,1432.00
2019-06-15T07:02:51.065Z,1128.00
2019-06-15T07:03:50.902Z,1280.00
2019-06-15T07:04:50.982Z,868.00
2019-06-15T07:05:50.760Z,796.00
2019-06-15T07:06:50.787Z,820.00
2019-06-15T07:07:50.744Z,844.00
2019-06-15T07:08:50.708Z,880.00
2019-06-15T07:09:50.477Z,960.00
2019-06-15T07:10:50.513Z,1216.00
2019-06-15T07:11:50.617Z,1612.00
2019-06-15T07:12:50.263Z,1644.00
2019-06-15T07:13:50.185Z,1640.00
2019-06-15T07:14:50.111Z,1636.00
2019-06-15T07:15:50.042Z,1620.00
2019-06-15T07:16:50.140Z,1628.00
2019-06-15T07:17:49.904Z,1640.00
2019-06-15T07:18:50.055Z,1648.00
2019-06-15T07:19:50.009Z,1660.00
2019-06-15T07:20:49.699Z,1688.00
2019-06-15T07:21:49.766Z,1700.00
2019-06-15T07:22:49.661Z,1732.00
2019-06-15T07:23:49.677Z,1752.00
2019-06-15T07:24:49.404Z,1800.00
2019-06-15T07:25:49.487Z,1852.00
2019-06-15T07:26:49.292Z,1800.00
2019-06-15T07:27:49.407Z,1972.00
2019-06-15T07:28:49.119Z,2112.00
2019-06-15T07:29:49.208Z,2124.00
2019-06-15T07:30:48.983Z,2188.00
2019-06-15T07:31:49.021Z,2244.00
2019-06-15T07:32:48.842Z,2296.00
2019-06-15T07:33:48.925Z,2372.00
2019-06-15T07:34:48.700Z,2440.00
2019-06-15T07:35:48.739Z,2500.00
2019-06-15T07:36:48.563Z,2584.00
2019-06-15T07:37:48.492Z,2644.00
2019-06-15T07:38:48.423Z,2652.00
2019-06-15T07:39:48.464Z,2720.00
2019-06-15T07:40:48.274Z,2812.00
2019-06-15T07:41:48.222Z,2876.00
2019-06-15T07:42:48.146Z,2932.00
2019-06-15T07:43:48.068Z,2964.00
2019-06-15T07:44:48.193Z,3020.00
2019-06-15T07:45:47.927Z,3152.00
2019-06-15T07:46:48.003Z,3224.00
2019-06-15T07:47:47.790Z,3268.00
2019-06-15T07:48:47.917Z,3256.00
2019-06-15T07:49:47.643Z,3268.00
2019-06-15T07:50:48.735Z,3232.00
2019-06-15T07:51:47.507Z,2960.00
2019-06-15T07:52:47.628Z,1652.00
2019-06-15T07:53:47.366Z,3268.00
2019-06-15T07:54:47.435Z,3180.00
2019-06-15T07:55:47.231Z,3460.00
2019-06-15T07:56:47.349Z,3320.00
2019-06-15T07:57:47.087Z,2116.00
2019-06-15T07:58:47.157Z,2680.00
2019-06-15T07:59:46.979Z,3020.00
2019-06-15T08:00:47.076Z,1136.00
2019-06-15T08:01:46.814Z,3124.00
2019-06-15T08:02:46.876Z,2588.00
2019-06-15T08:03:46.681Z,2544.00
2019-06-15T08:04:46.788Z,3140.00
2019-06-15T08:05:46.535Z,3140.00
2019-06-15T08:06:46.601Z,3156.00
2019-06-15T08:07:46.394Z,3172.00
2019-06-15T08:08:46.508Z,3200.00
2019-06-15T08:09:46.266Z,3224.00
2019-06-15T08:10:46.329Z,3240.00
2019-06-15T08:11:46.119Z,3272.00
2019-06-15T08:12:46.232Z,3280.00
2019-06-15T08:13:45.983Z,3116.00
2019-06-15T08:14:46.040Z,3220.00
2019-06-15T08:15:45.843Z,3204.00
2019-06-15T08:16:45.955Z,3184.00
2019-06-15T08:17:45.867Z,3176.00
2019-06-15T08:18:45.761Z,3136.00
2019-06-15T08:19:45.564Z,2868.00
2019-06-15T08:20:45.675Z,3084.00
2019-06-15T08:21:45.502Z,2840.00
2019-06-15T08:22:45.486Z,2976.00
2019-06-15T08:23:45.294Z,2592.00
2019-06-15T08:24:45.393Z,3108.00
2019-06-15T08:25:45.154Z,3208.00
2019-06-15T08:26:45.305Z,3196.00
2019-06-15T08:27:45.020Z,3236.00
2019-06-15T08:28:45.111Z,3248.00
2019-06-15T08:29:45.038Z,3236.00
2019-06-15T08:30:45.028Z,3264.00
2019-06-15T08:31:44.746Z,2552.00
2019-06-15T08:32:44.833Z,3132.00
2019-06-15T08:33:44.610Z,3028.00
2019-06-15T08:34:44.946Z,2972.00
2019-06-15T08:35:44.477Z,3092.00
2019-06-15T08:36:44.557Z,3172.00
2019-06-15T08:37:44.339Z,3204.00
2019-06-15T08:38:45.487Z,3244.00
2019-06-15T08:39:44.203Z,3244.00
2019-06-15T08:40:45.449Z,3148.00
2019-06-15T08:41:44.065Z,2844.00
2019-06-15T08:42:44.196Z,3084.00
2019-06-15T08:43:43.935Z,3248.00
2019-06-15T08:44:43.992Z,3180.00
2019-06-15T08:45:43.792Z,3236.00
2019-06-15T08:46:43.729Z,3284.00
2019-06-15T08:47:44.832Z,3320.00
2019-06-15T08:48:43.584Z,3316.00
2019-06-15T08:49:43.530Z,3032.00
2019-06-15T08:50:50.484Z,3116.00
2019-06-15T08:51:43.995Z,3148.00
2019-06-15T08:52:44.540Z,3212.00
2019-06-15T08:53:44.629Z,3240.00
2019-06-15T08:54:43.342Z,3220.00
2019-06-15T08:55:43.110Z,3212.00
2019-06-15T08:56:43.263Z,3152.00
2019-06-15T08:57:42.983Z,3192.00
2019-06-15T08:58:54.769Z,3164.00
2019-06-15T08:59:42.838Z,3164.00
2019-06-15T09:00:42.977Z,3152.00
2019-06-15T09:01:42.707Z,3156.00
2019-06-15T09:02:42.788Z,3148.00
2019-06-15T09:03:42.570Z,3144.00
2019-06-15T09:04:42.701Z,3140.00
2019-06-15T09:05:42.436Z,3132.00
2019-06-15T09:06:42.503Z,3108.00
2019-06-15T09:07:42.308Z,3120.00
2019-06-15T09:08:42.417Z,3084.00
2019-06-15T09:09:42.172Z,3088.00
2019-06-15T09:10:42.225Z,3080.00
2019-06-15T09:11:42.042Z,3076.00
2019-06-15T09:12:42.138Z,3080.00
2019-06-15T09:13:41.898Z,3040.00
2019-06-15T09:14:42.050Z,3020.00
2019-06-15T09:15:41.766Z,2908.00
2019-06-15T09:16:41.862Z,2940.00
2019-06-15T09:17:41.641Z,2848.00
2019-06-15T09:18:41.771Z,2796.00
2019-06-15T09:19:41.494Z,2920.00
2019-06-15T09:20:41.573Z,3028.00
2019-06-15T09:21:41.366Z,3032.00
2019-06-15T09:22:41.489Z,3048.00
2019-06-15T09:23:41.219Z,2992.00
2019-06-15T09:24:41.299Z,3012.00
2019-06-15T09:25:41.092Z,2972.00
2019-06-15T09:26:41.212Z,2876.00
2019-06-15T09:27:40.964Z,2864.00
2019-06-15T09:28:41.017Z,2896.00
2019-06-15T09:29:40.815Z,3000.00
2019-06-15T09:30:40.931Z,2960.00
2019-06-15T09:31:40.685Z,2924.00
2019-06-15T09:32:40.847Z,2872.00
2019-06-15T09:33:40.549Z,2800.00
2019-06-15T09:34:40.651Z,2656.00
2019-06-15T09:35:40.425Z,2972.00
2019-06-15T09:36:40.353Z,2940.00
2019-06-15T09:37:40.366Z,2936.00
2019-06-15T09:38:40.218Z,2928.00
2019-06-15T09:39:40.149Z,2880.00
2019-06-15T09:40:40.287Z,2768.00
2019-06-15T09:41:40.020Z,2832.00
2019-06-15T09:42:40.155Z,2840.00
2019-06-15T09:43:40.014Z,2712.00
2019-06-15T09:44:40.011Z,2748.00
2019-06-15T09:45:39.750Z,2768.00
2019-06-15T09:46:39.817Z,2684.00
2019-06-15T09:47:39.620Z,2448.00
2019-06-15T09:48:39.548Z,2616.00
2019-06-15T09:49:39.630Z,2780.00
2019-06-15T09:50:39.416Z,2780.00
2019-06-15T09:51:39.542Z,2800.00
2019-06-15T09:52:39.287Z,2792.00
2019-06-15T09:53:39.423Z,2792.00
2019-06-15T09:54:39.149Z,2792.00
2019-06-15T09:55:39.080Z,2772.00
2019-06-15T09:56:39.162Z,2756.00
2019-06-15T09:57:38.952Z,2776.00
2019-06-15T09:58:39.071Z,2776.00
2019-06-15T09:59:38.812Z,2484.00
2019-06-15T10:00:38.886Z,2780.00
2019-06-15T10:01:38.691Z,2412.00
2019-06-15T10:02:38.705Z,2776.00
2019-06-15T10:03:38.558Z,2404.00
2019-06-15T10:04:38.609Z,2220.00
2019-06-15T10:05:38.421Z,2804.00
2019-06-15T10:06:38.360Z,2816.00
2019-06-15T10:07:38.279Z,2300.00
2019-06-15T10:08:38.326Z,2652.00
2019-06-15T10:09:38.148Z,2736.00
2019-06-15T10:10:38.137Z,2600.00
2019-06-15T10:11:38.014Z,3028.00
2019-06-15T10:12:38.049Z,3028.00
2019-06-15T10:13:37.885Z,1432.00
2019-06-15T10:14:37.859Z,1292.00
2019-06-15T10:15:37.750Z,2572.00
2019-06-15T10:16:37.772Z,2588.00
2019-06-15T10:17:37.622Z,2572.00
2019-06-15T10:18:38.939Z,1632.00
2019-06-15T10:19:37.594Z,2840.00
2019-06-15T10:20:37.487Z,1552.00
2019-06-15T10:21:37.393Z,2596.00
2019-06-15T10:22:38.206Z,1704.00
2019-06-15T10:23:37.307Z,1452.00
2019-06-15T10:24:37.158Z,1232.00
2019-06-15T10:25:37.219Z,1288.00
2019-06-15T10:26:37.016Z,3144.00
2019-06-15T10:28:36.886Z,1344.00
2019-06-15T10:29:42.044Z,1244.00
2019-06-15T10:30:36.755Z,1048.00
2019-06-15T10:31:36.746Z,900.00
2019-06-15T10:32:36.624Z,848.00
2019-06-15T10:33:36.655Z,852.00
2019-06-15T10:34:36.543Z,892.00
2019-06-15T10:35:36.431Z,932.00
2019-06-15T10:36:36.472Z,984.00
2019-06-15T10:37:36.296Z,1064.00
2019-06-15T10:38:36.283Z,1896.00
2019-06-15T10:39:36.147Z,2236.00
2019-06-15T10:40:36.190Z,1916.00
2019-06-15T10:41:36.021Z,1520.00
2019-06-15T10:42:36.001Z,3056.00
2019-06-15T10:43:35.887Z,1444.00
2019-06-15T10:44:35.933Z,1140.00
2019-06-15T10:45:35.748Z,1008.00
2019-06-15T10:46:35.724Z,1104.00
2019-06-15T10:47:35.610Z,1132.00
2019-06-15T10:48:35.545Z,1016.00
2019-06-15T10:49:35.540Z,996.00
2019-06-15T10:50:35.414Z,1020.00
2019-06-15T10:51:35.345Z,1240.00
2019-06-15T10:52:35.355Z,2876.00
2019-06-15T10:53:35.218Z,1956.00
2019-06-15T10:54:35.266Z,1460.00
2019-06-15T10:55:35.079Z,1248.00
2019-06-15T10:56:35.077Z,1184.00
2019-06-15T10:57:34.939Z,2020.00
2019-06-15T10:58:34.988Z,1972.00
2019-06-15T10:59:35.357Z,1372.00
2019-06-15T11:00:34.794Z,1184.00
2019-06-15T11:01:34.673Z,1108.00
2019-06-15T11:02:34.726Z,1076.00
2019-06-15T11:03:34.535Z,1116.00
2019-06-15T11:04:34.525Z,1120.00
2019-06-15T11:05:34.403Z,1200.00
2019-06-15T11:06:34.431Z,2548.00
2019-06-15T11:07:34.273Z,2724.00
2019-06-15T11:08:34.267Z,1988.00
2019-06-15T11:09:34.130Z,1388.00
2019-06-15T11:10:34.156Z,1432.00
2019-06-15T11:11:34.025Z,1536.00
2019-06-15T11:12:45.875Z,1908.00
2019-06-15T11:13:33.866Z,2508.00
2019-06-15T11:14:33.801Z,2512.00
2019-06-15T11:15:33.775Z,2656.00
2019-06-15T11:16:33.652Z,3016.00
2019-06-15T11:17:33.688Z,2968.00
2019-06-15T11:18:33.534Z,3196.00
2019-06-15T11:19:33.675Z,2668.00
2019-06-15T11:20:33.386Z,2756.00
2019-06-15T11:21:33.405Z,2072.00
2019-06-15T11:22:33.311Z,1744.00
2019-06-15T11:23:33.316Z,1572.00
2019-06-15T11:24:33.126Z,1788.00
2019-06-15T11:25:33.047Z,2916.00
2019-06-15T11:26:33.028Z,2852.00
2019-06-15T11:27:32.915Z,3048.00
2019-06-15T11:28:32.944Z,2732.00
2019-06-15T11:29:32.779Z,2492.00
2019-06-15T11:30:32.850Z,3052.00
2019-06-15T11:31:32.645Z,3008.00
2019-06-15T11:32:32.574Z,1700.00
2019-06-15T11:33:32.568Z,1872.00
2019-06-15T11:34:32.439Z,1500.00
2019-06-15T11:35:32.494Z,2988.00
2019-06-15T11:36:32.315Z,2120.00
2019-06-15T11:37:32.289Z,1708.00
2019-06-15T11:38:32.174Z,1656.00
2019-06-15T11:39:32.194Z,1428.00
2019-06-15T11:40:32.053Z,1292.00
2019-06-15T11:41:32.111Z,1292.00
2019-06-15T11:42:31.948Z,2208.00
2019-06-15T11:43:31.846Z,1360.00
2019-06-15T11:44:31.776Z,1440.00
2019-06-15T11:45:31.836Z,1196.00
2019-06-15T11:46:31.643Z,1292.00
2019-06-15T11:47:31.595Z,1632.00
2019-06-15T11:48:31.510Z,2072.00
2019-06-15T11:49:31.549Z,1920.00
2019-06-15T11:50:31.398Z,1748.00
2019-06-15T11:51:31.359Z,1696.00
2019-06-15T11:52:31.236Z,1768.00
2019-06-15T11:53:31.270Z,1472.00
2019-06-15T11:54:31.111Z,1436.00
2019-06-15T11:55:39.537Z,1584.00
2019-06-15T11:56:30.969Z,2264.00
2019-06-15T11:57:30.991Z,2124.00
2019-06-15T11:58:30.837Z,1708.00
2019-06-15T11:59:30.904Z,1304.00
2019-06-15T12:00:31.804Z,1840.00
2019-06-15T12:01:30.713Z,1816.00
2019-06-15T12:02:30.576Z,1776.00
2019-06-15T12:03:30.627Z,1760.00
2019-06-15T12:04:30.437Z,1744.00
2019-06-15T12:05:30.433Z,1644.00
2019-06-15T12:06:30.307Z,1596.00
2019-06-15T12:07:30.345Z,1648.00
2019-06-15T12:08:30.335Z,1584.00
2019-06-15T12:09:30.098Z,1388.00
2019-06-15T12:10:30.038Z,1388.00
2019-06-15T12:11:30.063Z,1396.00
2019-06-15T12:12:29.903Z,1424.00
2019-06-15T12:13:29.837Z,1432.00
2019-06-15T12:14:29.882Z,1396.00
2019-06-15T12:15:29.697Z,1344.00
2019-06-15T12:16:29.690Z,1224.00
2019-06-15T12:17:29.571Z,1248.00
2019-06-15T12:18:29.601Z,1328.00
2019-06-15T12:19:29.432Z,2216.00
2019-06-15T12:20:29.364Z,1392.00
2019-06-15T12:21:29.421Z,1340.00
2019-06-15T12:22:29.248Z,1704.00
2019-06-15T12:23:29.232Z,1496.00
2019-06-15T12:24:29.092Z,2064.00
2019-06-15T12:25:29.140Z,1764.00
2019-06-15T12:26:28.966Z,1636.00
2019-06-15T12:27:28.945Z,1516.00
2019-06-15T12:28:28.832Z,1768.00
2019-06-15T12:29:28.859Z,1508.00
2019-06-15T12:30:28.698Z,1676.00
2019-06-15T12:31:28.768Z,1388.00
2019-06-15T12:32:28.554Z,1284.00